Royal Accord — 3EUA9 — position and weather

sailwx.info

Track history (hours):
 
Tides and Currents Weather Stations Pressure Air Temp Water Temp Dewpoint Dewpoint Depression Visibility Wind Speed Wind Dir Waves Ship Positions

Royal Accord

Last reported at 2018-Sep-27 15:51 UTC. Time now 2018-Nov-17 19:03 UTC.
Position N 02°08' E 104°53'.
Warning: this ship's position is 51 days out of date.

Length 290 m; draft 14.2 m.

Type: Cargo ship. MMSI: 370064000.

Date/timePositionNaut miles runAvg speedWind from/ knotsBaromVisibWave heightAir tempDewpointWater temp
2018-Sep-27 15:51N 02°08' E 104°53'47 8.2
2018-Sep-27 10:09N 01°27' E 104°31'410.7
2018-Sep-27 09:47N 01°24' E 104°28'311.0
2018-Sep-27 09:29N 01°22' E 104°25'511.2
2018-Sep-27 09:03N 01°19' E 104°22'110.9
2018-Sep-27 08:59N 01°18' E 104°21'510.7
2018-Sep-27 08:29N 01°16' E 104°16'511.4
2018-Sep-27 08:02N 01°16' E 104°11'110.1
2018-Sep-27 07:59N 01°16' E 104°11'510.7
2018-Sep-27 07:30N 01°15' E 104°06'4 9.9
2018-Sep-27 07:03N 01°15' E 104°01'1 8.7
2018-Sep-27 06:59N 01°15' E 104°01'2 4.0
2018-Sep-27 06:30N 01°16' E 103°59'0 0.9
2018-Sep-27 06:03N 01°17' E 103°59'0 0.6
2018-Sep-27 05:58N 01°17' E 103°59'0 0.3
2018-Sep-27 05:25N 01°17' E 103°59'0 0.0
2018-Sep-27 04:58N 01°17' E 103°59'0 0.1
2018-Sep-27 04:25N 01°17' E 103°59'0 0.1
2018-Sep-27 04:03N 01°17' E 103°59'0 0.0
2018-Sep-27 03:54N 01°17' E 103°59'0 0.1
2018-Sep-27 03:28N 01°17' E 103°59'0 0.0
2018-Sep-27 02:52N 01°17' E 103°59'0 0.0
2018-Sep-27 02:13N 01°17' E 103°59'0 0.0
2018-Sep-27 02:01N 01°17' E 103°59'0 0.0
2018-Sep-27 01:53N 01°17' E 103°59'0 0.0
2018-Sep-27 01:27N 01°17' E 103°59'0 0.0
2018-Sep-27 00:57N 01°17' E 103°59'0 0.1
2018-Sep-27 00:28N 01°17' E 103°59'0 0.5
2018-Sep-26 23:58N 01°17' E 103°59'0 0.2
2018-Sep-26 23:25N 01°17' E 103°59'0 0.0
2018-Sep-26 22:58N 01°17' E 103°59'0 0.0
2018-Sep-26 22:30N 01°17' E 103°59'0 0.0
2018-Sep-26 22:01N 01°17' E 103°59'0 0.0
2018-Sep-26 21:52N 01°17' E 103°59'0 0.0
2018-Sep-26 21:22N 01°17' E 103°59'0 0.0
2018-Sep-26 20:44N 01°17' E 103°59'0 0.0
2018-Sep-26 20:28N 01°17' E 103°59'0 0.1
2018-Sep-26 19:49N 01°17' E 103°59'0 0.4
2018-Sep-26 19:28N 01°17' E 103°59'0 0.3
2018-Sep-26 19:02N 01°17' E 103°59'0 0.7
2018-Sep-26 18:56N 01°17' E 103°59'0 0.2
2018-Sep-26 18:30N 01°17' E 103°59'0 0.0
2018-Sep-26 18:02N 01°17' E 103°59'0 0.0
2018-Sep-26 17:59N 01°17' E 103°59'0 0.0
2018-Sep-26 17:28N 01°17' E 103°59'0 0.0
2018-Sep-26 16:56N 01°17' E 103°59'0 0.0
2018-Sep-26 16:25N 01°17' E 103°59'0 0.0
2018-Sep-26 16:02N 01°17' E 103°59'0 0.1
2018-Sep-26 15:58N 01°17' E 103°59'0 0.0
2018-Sep-26 15:18N 01°17' E 103°59'0 0.0
2018-Sep-26 15:01N 01°17' E 103°59'0 0.0
2018-Sep-26 14:55N 01°17' E 103°59'0 0.0
2018-Sep-26 14:01N 01°17' E 103°59'0 0.0
2018-Sep-26 13:57N 01°17' E 103°59'0 0.0
2018-Sep-26 13:22N 01°17' E 103°59'0 0.1
2018-Sep-26 13:02N 01°17' E 103°59'0 0.1
2018-Sep-26 12:59N 01°17' E 103°59'0 0.0
2018-Sep-26 12:23N 01°17' E 103°59'0 0.1
2018-Sep-26 11:55N 01°17' E 103°59'0 0.1
2018-Sep-26 11:29N 01°17' E 103°59'0 0.1
2018-Sep-26 10:59N 01°17' E 103°59'0 0.1
2018-Sep-26 10:30N 01°17' E 103°59'2 4.7
2018-Sep-26 10:02N 01°15' E 103°58'0 8.2
2018-Sep-26 09:59N 01°15' E 103°58'2 3.9
2018-Sep-26 09:31N 01°13' E 103°56'2 4.8
2018-Sep-26 09:03N 01°12' E 103°54'0 7.6
2018-Sep-26 09:00N 01°12' E 103°54'4 7.9
2018-Sep-26 08:30N 01°11' E 103°50'3 7.0
2018-Sep-26 08:03N 01°09' E 103°48'0 7.0
2018-Sep-26 08:00N 01°09' E 103°47'3 7.1
2018-Sep-26 07:30N 01°07' E 103°45'3 7.1
2018-Sep-26 07:03N 01°04' E 103°42'0 7.6
2018-Sep-26 07:00N 01°04' E 103°42'4 7.5
2018-Sep-26 06:30N 01°03' E 103°39'3 7.1
2018-Sep-26 06:03N 01°04' E 103°36'0 4.7
2018-Sep-26 05:59N 01°04' E 103°36'4 7.5
2018-Sep-26 05:30N 01°06' E 103°32'3 7.4
2018-Sep-26 05:04N 01°08' E 103°30'1 8.6
2018-Sep-26 05:00N 01°08' E 103°29'4 8.4
2018-Sep-26 04:29N 01°10' E 103°25'4 9.6
2018-Sep-26 04:03N 01°13' E 103°22'111.9
2018-Sep-26 03:59N 01°14' E 103°22'4 9.3
2018-Sep-26 03:30N 01°16' E 103°18'711.5
2018-Sep-26 02:53N 01°21' E 103°13'411.3
2018-Sep-26 02:30N 01°24' E 103°10'  
Track history (hours):
 
Tides and Currents Weather Stations Pressure Air Temp Water Temp Dewpoint Dewpoint Depression Visibility Wind Speed Wind Dir Waves Ship Positions

Royal Accord

Last reported at 2018-Sep-27 15:51 UTC. Time now 2018-Nov-17 19:03 UTC.
Position N 02°08' E 104°53'.
Warning: this ship's position is 51 days out of date.

Length 290 m; draft 14.2 m.

Type: Cargo ship. MMSI: 370064000.

Date/timePositionNaut miles runAvg speedWind from/ knotsBaromVisibWave heightAir tempDewpointWater temp
2018-Sep-27 15:51N 02°08' E 104°53'47 8.2
2018-Sep-27 10:09N 01°27' E 104°31'410.7
2018-Sep-27 09:47N 01°24' E 104°28'311.0
2018-Sep-27 09:29N 01°22' E 104°25'511.2
2018-Sep-27 09:03N 01°19' E 104°22'110.9
2018-Sep-27 08:59N 01°18' E 104°21'510.7
2018-Sep-27 08:29N 01°16' E 104°16'511.4
2018-Sep-27 08:02N 01°16' E 104°11'110.1
2018-Sep-27 07:59N 01°16' E 104°11'510.7
2018-Sep-27 07:30N 01°15' E 104°06'4 9.9
2018-Sep-27 07:03N 01°15' E 104°01'1 8.7
2018-Sep-27 06:59N 01°15' E 104°01'2 4.0
2018-Sep-27 06:30N 01°16' E 103°59'0 0.9
2018-Sep-27 06:03N 01°17' E 103°59'0 0.6
2018-Sep-27 05:58N 01°17' E 103°59'0 0.3
2018-Sep-27 05:25N 01°17' E 103°59'0 0.0
2018-Sep-27 04:58N 01°17' E 103°59'0 0.1
2018-Sep-27 04:25N 01°17' E 103°59'0 0.1
2018-Sep-27 04:03N 01°17' E 103°59'0 0.0
2018-Sep-27 03:54N 01°17' E 103°59'0 0.1
2018-Sep-27 03:28N 01°17' E 103°59'0 0.0
2018-Sep-27 02:52N 01°17' E 103°59'0 0.0
2018-Sep-27 02:13N 01°17' E 103°59'0 0.0
2018-Sep-27 02:01N 01°17' E 103°59'0 0.0
2018-Sep-27 01:53N 01°17' E 103°59'0 0.0
2018-Sep-27 01:27N 01°17' E 103°59'0 0.0
2018-Sep-27 00:57N 01°17' E 103°59'0 0.1
2018-Sep-27 00:28N 01°17' E 103°59'0 0.5
2018-Sep-26 23:58N 01°17' E 103°59'0 0.2
2018-Sep-26 23:25N 01°17' E 103°59'0 0.0
2018-Sep-26 22:58N 01°17' E 103°59'0 0.0
2018-Sep-26 22:30N 01°17' E 103°59'0 0.0
2018-Sep-26 22:01N 01°17' E 103°59'0 0.0
2018-Sep-26 21:52N 01°17' E 103°59'0 0.0
2018-Sep-26 21:22N 01°17' E 103°59'0 0.0
2018-Sep-26 20:44N 01°17' E 103°59'0 0.0
2018-Sep-26 20:28N 01°17' E 103°59'0 0.1
2018-Sep-26 19:49N 01°17' E 103°59'0 0.4
2018-Sep-26 19:28N 01°17' E 103°59'0 0.3
2018-Sep-26 19:02N 01°17' E 103°59'0 0.7
2018-Sep-26 18:56N 01°17' E 103°59'0 0.2
2018-Sep-26 18:30N 01°17' E 103°59'0 0.0
2018-Sep-26 18:02N 01°17' E 103°59'0 0.0
2018-Sep-26 17:59N 01°17' E 103°59'0 0.0
2018-Sep-26 17:28N 01°17' E 103°59'0 0.0
2018-Sep-26 16:56N 01°17' E 103°59'0 0.0
2018-Sep-26 16:25N 01°17' E 103°59'0 0.0
2018-Sep-26 16:02N 01°17' E 103°59'0 0.1
2018-Sep-26 15:58N 01°17' E 103°59'0 0.0
2018-Sep-26 15:18N 01°17' E 103°59'0 0.0
2018-Sep-26 15:01N 01°17' E 103°59'0 0.0
2018-Sep-26 14:55N 01°17' E 103°59'0 0.0
2018-Sep-26 14:01N 01°17' E 103°59'0 0.0
2018-Sep-26 13:57N 01°17' E 103°59'0 0.0
2018-Sep-26 13:22N 01°17' E 103°59'0 0.1
2018-Sep-26 13:02N 01°17' E 103°59'0 0.1
2018-Sep-26 12:59N 01°17' E 103°59'0 0.0
2018-Sep-26 12:23N 01°17' E 103°59'0 0.1
2018-Sep-26 11:55N 01°17' E 103°59'0 0.1
2018-Sep-26 11:29N 01°17' E 103°59'0 0.1
2018-Sep-26 10:59N 01°17' E 103°59'0 0.1
2018-Sep-26 10:30N 01°17' E 103°59'2 4.7
2018-Sep-26 10:02N 01°15' E 103°58'0 8.2
2018-Sep-26 09:59N 01°15' E 103°58'2 3.9
2018-Sep-26 09:31N 01°13' E 103°56'2 4.8
2018-Sep-26 09:03N 01°12' E 103°54'0 7.6
2018-Sep-26 09:00N 01°12' E 103°54'4 7.9
2018-Sep-26 08:30N 01°11' E 103°50'3 7.0
2018-Sep-26 08:03N 01°09' E 103°48'0 7.0
2018-Sep-26 08:00N 01°09' E 103°47'3 7.1
2018-Sep-26 07:30N 01°07' E 103°45'3 7.1
2018-Sep-26 07:03N 01°04' E 103°42'0 7.6
2018-Sep-26 07:00N 01°04' E 103°42'4 7.5
2018-Sep-26 06:30N 01°03' E 103°39'3 7.1
2018-Sep-26 06:03N 01°04' E 103°36'0 4.7
2018-Sep-26 05:59N 01°04' E 103°36'4 7.5
2018-Sep-26 05:30N 01°06' E 103°32'3 7.4
2018-Sep-26 05:04N 01°08' E 103°30'1 8.6
2018-Sep-26 05:00N 01°08' E 103°29'4 8.4
2018-Sep-26 04:29N 01°10' E 103°25'4 9.6
2018-Sep-26 04:03N 01°13' E 103°22'111.9
2018-Sep-26 03:59N 01°14' E 103°22'4 9.3
2018-Sep-26 03:30N 01°16' E 103°18'711.5
2018-Sep-26 02:53N 01°21' E 103°13'411.3
2018-Sep-26 02:30N 01°24' E 103°10'  

Dump ship's entire track history